sensor_id;sensor_type;location;lat;lon;timestamp;temperature;humidity
36690;DHT22;22676;51.120;3.702;2023-07-16T00:01:17;26.00;45.10
36690;DHT22;22676;51.120;3.702;2023-07-16T00:03:43;26.00;45.10
36690;DHT22;22676;51.120;3.702;2023-07-16T00:06:08;26.00;45.10
36690;DHT22;22676;51.120;3.702;2023-07-16T00:08:34;25.90;44.90
36690;DHT22;22676;51.120;3.702;2023-07-16T00:11:00;25.90;44.90
36690;DHT22;22676;51.120;3.702;2023-07-16T00:13:25;25.90;45.00
36690;DHT22;22676;51.120;3.702;2023-07-16T00:15:51;25.90;45.00
36690;DHT22;22676;51.120;3.702;2023-07-16T00:18:17;25.90;45.10
36690;DHT22;22676;51.120;3.702;2023-07-16T00:20:42;25.80;45.10
36690;DHT22;22676;51.120;3.702;2023-07-16T00:23:08;25.80;45.10
36690;DHT22;22676;51.120;3.702;2023-07-16T00:25:34;25.90;45.20
36690;DHT22;22676;51.120;3.702;2023-07-16T00:28:00;25.80;45.20
36690;DHT22;22676;51.120;3.702;2023-07-16T00:30:26;25.90;45.30
36690;DHT22;22676;51.120;3.702;2023-07-16T00:32:51;25.80;45.30
36690;DHT22;22676;51.120;3.702;2023-07-16T00:35:17;25.80;45.30
36690;DHT22;22676;51.120;3.702;2023-07-16T00:37:43;25.80;45.40
36690;DHT22;22676;51.120;3.702;2023-07-16T00:40:10;25.80;45.40
36690;DHT22;22676;51.120;3.702;2023-07-16T00:42:36;25.70;45.30
36690;DHT22;22676;51.120;3.702;2023-07-16T00:45:02;25.80;45.40
36690;DHT22;22676;51.120;3.702;2023-07-16T00:47:28;25.80;45.50
36690;DHT22;22676;51.120;3.702;2023-07-16T00:49:54;25.80;45.60
36690;DHT22;22676;51.120;3.702;2023-07-16T00:52:21;25.70;45.50
36690;DHT22;22676;51.120;3.702;2023-07-16T00:54:48;25.70;45.50
36690;DHT22;22676;51.120;3.702;2023-07-16T00:57:14;25.70;45.60
36690;DHT22;22676;51.120;3.702;2023-07-16T00:59:40;25.70;45.70
36690;DHT22;22676;51.120;3.702;2023-07-16T01:02:06;25.70;45.70
36690;DHT22;22676;51.120;3.702;2023-07-16T01:04:31;25.70;45.70
36690;DHT22;22676;51.120;3.702;2023-07-16T01:07:00;25.70;45.60
36690;DHT22;22676;51.120;3.702;2023-07-16T01:09:26;25.70;45.50
36690;DHT22;22676;51.120;3.702;2023-07-16T01:11:55;25.70;45.60
36690;DHT22;22676;51.120;3.702;2023-07-16T01:14:21;25.70;45.70
36690;DHT22;22676;51.120;3.702;2023-07-16T01:16:47;25.70;45.70
36690;DHT22;22676;51.120;3.702;2023-07-16T01:19:12;25.70;45.70
36690;DHT22;22676;51.120;3.702;2023-07-16T01:27:22;25.60;45.70
36690;DHT22;22676;51.120;3.702;2023-07-16T01:30:02;25.70;45.80
36690;DHT22;22676;51.120;3.702;2023-07-16T01:32:30;25.70;45.90
36690;DHT22;22676;51.120;3.702;2023-07-16T01:34:57;25.60;45.80
36690;DHT22;22676;51.120;3.702;2023-07-16T01:37:23;25.60;45.80
36690;DHT22;22676;51.120;3.702;2023-07-16T01:39:49;25.60;45.90
36690;DHT22;22676;51.120;3.702;2023-07-16T01:42:15;25.60;45.80
36690;DHT22;22676;51.120;3.702;2023-07-16T01:44:41;25.60;45.90
36690;DHT22;22676;51.120;3.702;2023-07-16T01:47:13;25.60;45.80
36690;DHT22;22676;51.120;3.702;2023-07-16T01:49:40;25.60;45.80
36690;DHT22;22676;51.120;3.702;2023-07-16T01:52:07;25.60;46.40
36690;DHT22;22676;51.120;3.702;2023-07-16T01:54:34;25.60;45.80
36690;DHT22;22676;51.120;3.702;2023-07-16T01:57:00;25.60;45.70
36690;DHT22;22676;51.120;3.702;2023-07-16T01:59:26;25.60;45.70
36690;DHT22;22676;51.120;3.702;2023-07-16T02:01:51;25.60;45.70
36690;DHT22;22676;51.120;3.702;2023-07-16T02:04:17;25.50;45.60
36690;DHT22;22676;51.120;3.702;2023-07-16T02:06:42;25.50;45.50
36690;DHT22;22676;51.120;3.702;2023-07-16T02:09:09;25.50;45.20
36690;DHT22;22676;51.120;3.702;2023-07-16T02:11:35;25.60;45.40
36690;DHT22;22676;51.120;3.702;2023-07-16T02:14:00;25.50;45.30
36690;DHT22;22676;51.120;3.702;2023-07-16T02:16:26;25.50;45.40
36690;DHT22;22676;51.120;3.702;2023-07-16T02:18:52;25.50;45.40
36690;DHT22;22676;51.120;3.702;2023-07-16T02:21:17;25.50;45.40
36690;DHT22;22676;51.120;3.702;2023-07-16T02:23:43;25.50;45.50
36690;DHT22;22676;51.120;3.702;2023-07-16T02:26:09;25.50;45.50
36690;DHT22;22676;51.120;3.702;2023-07-16T02:28:34;25.50;45.50
36690;DHT22;22676;51.120;3.702;2023-07-16T02:31:02;25.50;45.50
36690;DHT22;22676;51.120;3.702;2023-07-16T02:33:28;25.50;45.50
36690;DHT22;22676;51.120;3.702;2023-07-16T02:35:53;25.50;45.40
36690;DHT22;22676;51.120;3.702;2023-07-16T02:38:19;25.50;45.40
36690;DHT22;22676;51.120;3.702;2023-07-16T02:40:45;25.50;45.50
36690;DHT22;22676;51.120;3.702;2023-07-16T02:43:12;25.50;45.50
36690;DHT22;22676;51.120;3.702;2023-07-16T02:45:37;25.40;45.40
36690;DHT22;22676;51.120;3.702;2023-07-16T02:48:05;25.50;45.50
36690;DHT22;22676;51.120;3.702;2023-07-16T02:50:33;25.50;45.50
36690;DHT22;22676;51.120;3.702;2023-07-16T02:52:59;25.50;45.50
36690;DHT22;22676;51.120;3.702;2023-07-16T02:55:24;25.50;45.50
36690;DHT22;22676;51.120;3.702;2023-07-16T02:57:50;25.40;45.40
36690;DHT22;22676;51.120;3.702;2023-07-16T03:00:16;25.40;45.40
36690;DHT22;22676;51.120;3.702;2023-07-16T03:02:41;25.40;45.30
36690;DHT22;22676;51.120;3.702;2023-07-16T03:05:07;25.40;45.20
36690;DHT22;22676;51.120;3.702;2023-07-16T03:07:33;25.40;44.90
36690;DHT22;22676;51.120;3.702;2023-07-16T03:10:00;25.40;44.60
36690;DHT22;22676;51.120;3.702;2023-07-16T03:12:25;25.40;44.80
36690;DHT22;22676;51.120;3.702;2023-07-16T03:14:51;25.40;45.00
36690;DHT22;22676;51.120;3.702;2023-07-16T03:17:22;25.40;45.00
36690;DHT22;22676;51.120;3.702;2023-07-16T03:19:48;25.40;45.10
36690;DHT22;22676;51.120;3.702;2023-07-16T03:22:13;25.40;45.10
36690;DHT22;22676;51.120;3.702;2023-07-16T03:24:39;25.40;45.10
36690;DHT22;22676;51.120;3.702;2023-07-16T03:27:06;25.40;45.10
36690;DHT22;22676;51.120;3.702;2023-07-16T03:29:33;25.40;45.00
36690;DHT22;22676;51.120;3.702;2023-07-16T03:31:58;25.40;45.00
36690;DHT22;22676;51.120;3.702;2023-07-16T03:34:24;25.40;45.00
36690;DHT22;22676;51.120;3.702;2023-07-16T03:36:50;25.40;45.10
36690;DHT22;22676;51.120;3.702;2023-07-16T03:39:15;25.40;45.00
36690;DHT22;22676;51.120;3.702;2023-07-16T03:41:41;25.30;45.00
36690;DHT22;22676;51.120;3.702;2023-07-16T03:44:07;25.40;45.10
36690;DHT22;22676;51.120;3.702;2023-07-16T03:46:32;25.40;45.10
36690;DHT22;22676;51.120;3.702;2023-07-16T03:48:58;25.40;45.00
36690;DHT22;22676;51.120;3.702;2023-07-16T03:51:23;25.40;45.10
36690;DHT22;22676;51.120;3.702;2023-07-16T03:53:49;25.30;44.90
36690;DHT22;22676;51.120;3.702;2023-07-16T03:56:15;25.30;44.60
36690;DHT22;22676;51.120;3.702;2023-07-16T03:58:40;25.30;44.50
36690;DHT22;22676;51.120;3.702;2023-07-16T04:01:06;25.30;44.50
36690;DHT22;22676;51.120;3.702;2023-07-16T04:03:32;25.30;45.00
36690;DHT22;22676;51.120;3.702;2023-07-16T04:06:02;25.30;44.30
36690;DHT22;22676;51.120;3.702;2023-07-16T04:08:28;25.30;44.10
36690;DHT22;22676;51.120;3.702;2023-07-16T04:10:54;25.30;44.10
36690;DHT22;22676;51.120;3.702;2023-07-16T04:13:19;25.30;44.20
36690;DHT22;22676;51.120;3.702;2023-07-16T04:15:45;25.20;44.20
36690;DHT22;22676;51.120;3.702;2023-07-16T04:18:11;25.20;44.20
36690;DHT22;22676;51.120;3.702;2023-07-16T04:20:36;25.20;44.20
36690;DHT22;22676;51.120;3.702;2023-07-16T04:23:02;25.30;44.30
36690;DHT22;22676;51.120;3.702;2023-07-16T04:25:28;25.20;44.20
36690;DHT22;22676;51.120;3.702;2023-07-16T04:27:53;25.20;44.30
36690;DHT22;22676;51.120;3.702;2023-07-16T04:30:19;25.20;44.20
36690;DHT22;22676;51.120;3.702;2023-07-16T04:32:45;25.20;44.30
36690;DHT22;22676;51.120;3.702;2023-07-16T04:35:10;25.20;44.30
36690;DHT22;22676;51.120;3.702;2023-07-16T04:37:36;25.20;44.40
36690;DHT22;22676;51.120;3.702;2023-07-16T04:40:02;25.20;44.30
36690;DHT22;22676;51.120;3.702;2023-07-16T04:42:29;25.20;44.40
36690;DHT22;22676;51.120;3.702;2023-07-16T04:44:55;25.20;44.40
36690;DHT22;22676;51.120;3.702;2023-07-16T04:47:21;25.20;44.50
36690;DHT22;22676;51.120;3.702;2023-07-16T04:49:46;25.20;44.40
36690;DHT22;22676;51.120;3.702;2023-07-16T04:52:12;25.20;44.50
36690;DHT22;22676;51.120;3.702;2023-07-16T04:54:38;25.20;44.50
36690;DHT22;22676;51.120;3.702;2023-07-16T04:57:06;25.20;44.50
36690;DHT22;22676;51.120;3.702;2023-07-16T04:59:32;25.20;44.40
36690;DHT22;22676;51.120;3.702;2023-07-16T05:01:57;25.20;44.50
36690;DHT22;22676;51.120;3.702;2023-07-16T05:04:23;25.20;44.40
36690;DHT22;22676;51.120;3.702;2023-07-16T05:06:49;25.20;44.40
36690;DHT22;22676;51.120;3.702;2023-07-16T05:09:14;25.20;44.30
36690;DHT22;22676;51.120;3.702;2023-07-16T05:11:40;25.20;44.20
36690;DHT22;22676;51.120;3.702;2023-07-16T05:14:06;25.20;44.30
36690;DHT22;22676;51.120;3.702;2023-07-16T05:16:31;25.20;44.40
36690;DHT22;22676;51.120;3.702;2023-07-16T05:18:57;25.20;44.30
36690;DHT22;22676;51.120;3.702;2023-07-16T05:21:22;25.20;44.30
36690;DHT22;22676;51.120;3.702;2023-07-16T05:23:48;25.20;44.50
36690;DHT22;22676;51.120;3.702;2023-07-16T05:26:14;25.10;44.40
36690;DHT22;22676;51.120;3.702;2023-07-16T05:28:39;25.20;44.50
36690;DHT22;22676;51.120;3.702;2023-07-16T05:31:05;25.20;44.50
36690;DHT22;22676;51.120;3.702;2023-07-16T05:33:30;25.20;44.50
36690;DHT22;22676;51.120;3.702;2023-07-16T05:35:56;25.20;44.50
36690;DHT22;22676;51.120;3.702;2023-07-16T05:38:22;25.20;44.60
36690;DHT22;22676;51.120;3.702;2023-07-16T05:40:48;25.20;44.60
36690;DHT22;22676;51.120;3.702;2023-07-16T05:43:13;25.20;44.60
36690;DHT22;22676;51.120;3.702;2023-07-16T05:45:40;25.20;44.60
36690;DHT22;22676;51.120;3.702;2023-07-16T05:48:06;25.20;44.70
36690;DHT22;22676;51.120;3.702;2023-07-16T05:50:31;25.20;44.60
36690;DHT22;22676;51.120;3.702;2023-07-16T05:52:57;25.10;44.60
36690;DHT22;22676;51.120;3.702;2023-07-16T05:55:22;25.10;44.60
36690;DHT22;22676;51.120;3.702;2023-07-16T05:57:48;25.20;44.70
36690;DHT22;22676;51.120;3.702;2023-07-16T06:00:14;25.20;44.70
36690;DHT22;22676;51.120;3.702;2023-07-16T06:02:40;25.20;44.70
36690;DHT22;22676;51.120;3.702;2023-07-16T06:05:06;25.20;44.70
36690;DHT22;22676;51.120;3.702;2023-07-16T06:07:32;25.20;44.60
36690;DHT22;22676;51.120;3.702;2023-07-16T06:09:58;25.20;44.50
36690;DHT22;22676;51.120;3.702;2023-07-16T06:12:24;25.20;44.50
36690;DHT22;22676;51.120;3.702;2023-07-16T06:14:49;25.20;44.70
36690;DHT22;22676;51.120;3.702;2023-07-16T06:17:15;25.20;44.60
36690;DHT22;22676;51.120;3.702;2023-07-16T06:19:41;25.20;44.70
36690;DHT22;22676;51.120;3.702;2023-07-16T06:22:06;25.20;44.80
36690;DHT22;22676;51.120;3.702;2023-07-16T06:24:34;25.20;44.80
36690;DHT22;22676;51.120;3.702;2023-07-16T06:27:00;25.20;45.00
36690;DHT22;22676;51.120;3.702;2023-07-16T06:29:26;25.10;45.10
36690;DHT22;22676;51.120;3.702;2023-07-16T06:31:58;25.10;45.20
36690;DHT22;22676;51.120;3.702;2023-07-16T06:34:24;25.10;45.40
36690;DHT22;22676;51.120;3.702;2023-07-16T06:36:50;25.10;45.50
36690;DHT22;22676;51.120;3.702;2023-07-16T06:39:16;25.10;45.80
36690;DHT22;22676;51.120;3.702;2023-07-16T06:41:42;25.10;46.00
36690;DHT22;22676;51.120;3.702;2023-07-16T06:44:08;25.10;46.00
36690;DHT22;22676;51.120;3.702;2023-07-16T06:46:33;25.10;46.00
36690;DHT22;22676;51.120;3.702;2023-07-16T06:48:59;25.10;45.90
36690;DHT22;22676;51.120;3.702;2023-07-16T06:51:24;25.20;45.80
36690;DHT22;22676;51.120;3.702;2023-07-16T06:53:50;25.20;45.70
36690;DHT22;22676;51.120;3.702;2023-07-16T06:56:16;25.20;45.80
36690;DHT22;22676;51.120;3.702;2023-07-16T06:58:41;25.20;45.80
36690;DHT22;22676;51.120;3.702;2023-07-16T07:01:07;25.20;45.70
36690;DHT22;22676;51.120;3.702;2023-07-16T07:03:33;25.20;45.60
36690;DHT22;22676;51.120;3.702;2023-07-16T07:06:02;25.20;45.70
36690;DHT22;22676;51.120;3.702;2023-07-16T07:08:29;25.20;45.60
36690;DHT22;22676;51.120;3.702;2023-07-16T07:10:55;25.20;45.70
36690;DHT22;22676;51.120;3.702;2023-07-16T07:13:20;25.20;45.80
36690;DHT22;22676;51.120;3.702;2023-07-16T07:15:46;25.20;45.90
36690;DHT22;22676;51.120;3.702;2023-07-16T07:18:12;25.20;46.00
36690;DHT22;22676;51.120;3.702;2023-07-16T07:20:40;25.20;46.10
36690;DHT22;22676;51.120;3.702;2023-07-16T07:23:05;25.20;46.20
36690;DHT22;22676;51.120;3.702;2023-07-16T07:25:31;25.20;46.20
36690;DHT22;22676;51.120;3.702;2023-07-16T07:27:57;25.20;46.20
36690;DHT22;22676;51.120;3.702;2023-07-16T07:30:23;25.20;46.20
36690;DHT22;22676;51.120;3.702;2023-07-16T07:32:48;25.20;46.30
36690;DHT22;22676;51.120;3.702;2023-07-16T07:35:14;25.20;46.40
36690;DHT22;22676;51.120;3.702;2023-07-16T07:37:40;25.20;46.50
36690;DHT22;22676;51.120;3.702;2023-07-16T07:40:06;25.20;46.70
36690;DHT22;22676;51.120;3.702;2023-07-16T07:42:33;25.20;46.90
36690;DHT22;22676;51.120;3.702;2023-07-16T07:44:58;25.20;46.90
36690;DHT22;22676;51.120;3.702;2023-07-16T07:47:24;25.30;47.00
36690;DHT22;22676;51.120;3.702;2023-07-16T07:49:52;25.20;47.00
36690;DHT22;22676;51.120;3.702;2023-07-16T07:52:18;25.20;47.00
36690;DHT22;22676;51.120;3.702;2023-07-16T07:54:43;25.20;46.80
36690;DHT22;22676;51.120;3.702;2023-07-16T07:57:09;25.20;46.90
36690;DHT22;22676;51.120;3.702;2023-07-16T07:59:35;25.30;47.00
36690;DHT22;22676;51.120;3.702;2023-07-16T08:02:01;25.30;46.90
36690;DHT22;22676;51.120;3.702;2023-07-16T08:04:29;25.30;46.80
36690;DHT22;22676;51.120;3.702;2023-07-16T08:06:57;25.40;46.80
36690;DHT22;22676;51.120;3.702;2023-07-16T08:09:22;25.40;46.60
36690;DHT22;22676;51.120;3.702;2023-07-16T08:11:48;25.40;46.60
36690;DHT22;22676;51.120;3.702;2023-07-16T08:14:14;25.40;46.70
36690;DHT22;22676;51.120;3.702;2023-07-16T08:16:39;25.40;46.70
36690;DHT22;22676;51.120;3.702;2023-07-16T08:19:05;25.40;46.70
36690;DHT22;22676;51.120;3.702;2023-07-16T08:21:32;25.40;46.80
36690;DHT22;22676;51.120;3.702;2023-07-16T08:23:58;25.40;46.70
36690;DHT22;22676;51.120;3.702;2023-07-16T08:26:24;25.40;46.80
36690;DHT22;22676;51.120;3.702;2023-07-16T08:28:49;25.40;46.70
36690;DHT22;22676;51.120;3.702;2023-07-16T08:31:15;25.40;46.70
36690;DHT22;22676;51.120;3.702;2023-07-16T08:33:41;25.40;46.60
36690;DHT22;22676;51.120;3.702;2023-07-16T08:36:06;25.40;46.50
36690;DHT22;22676;51.120;3.702;2023-07-16T08:38:32;25.40;46.80
36690;DHT22;22676;51.120;3.702;2023-07-16T08:41:00;25.40;46.70
36690;DHT22;22676;51.120;3.702;2023-07-16T08:43:26;25.40;46.60
36690;DHT22;22676;51.120;3.702;2023-07-16T08:45:53;25.40;46.60
36690;DHT22;22676;51.120;3.702;2023-07-16T08:48:18;25.40;46.60
36690;DHT22;22676;51.120;3.702;2023-07-16T08:50:47;25.40;46.50
36690;DHT22;22676;51.120;3.702;2023-07-16T08:53:15;25.40;46.60
36690;DHT22;22676;51.120;3.702;2023-07-16T08:55:43;25.40;46.90
36690;DHT22;22676;51.120;3.702;2023-07-16T08:58:10;25.30;46.80
36690;DHT22;22676;51.120;3.702;2023-07-16T09:00:37;25.40;46.90
36690;DHT22;22676;51.120;3.702;2023-07-16T09:03:03;25.40;47.00
36690;DHT22;22676;51.120;3.702;2023-07-16T09:05:29;25.40;46.80
36690;DHT22;22676;51.120;3.702;2023-07-16T09:07:55;25.40;46.80
36690;DHT22;22676;51.120;3.702;2023-07-16T09:10:21;25.40;47.20
36690;DHT22;22676;51.120;3.702;2023-07-16T09:12:47;25.40;47.30
36690;DHT22;22676;51.120;3.702;2023-07-16T09:15:17;25.40;47.30
36690;DHT22;22676;51.120;3.702;2023-07-16T09:17:53;25.40;47.30
36690;DHT22;22676;51.120;3.702;2023-07-16T09:20:19;25.40;47.30
36690;DHT22;22676;51.120;3.702;2023-07-16T09:22:44;25.40;47.40
36690;DHT22;22676;51.120;3.702;2023-07-16T09:25:11;25.40;47.90
36690;DHT22;22676;51.120;3.702;2023-07-16T09:27:37;25.40;48.50
36690;DHT22;22676;51.120;3.702;2023-07-16T09:30:06;25.40;49.60
36690;DHT22;22676;51.120;3.702;2023-07-16T09:32:37;25.40;50.20
36690;DHT22;22676;51.120;3.702;2023-07-16T09:35:14;25.40;50.30
36690;DHT22;22676;51.120;3.702;2023-07-16T09:37:44;25.40;50.50
36690;DHT22;22676;51.120;3.702;2023-07-16T09:40:11;25.40;51.50
36690;DHT22;22676;51.120;3.702;2023-07-16T09:42:38;25.40;51.20
36690;DHT22;22676;51.120;3.702;2023-07-16T09:45:12;25.40;51.90
36690;DHT22;22676;51.120;3.702;2023-07-16T09:47:39;25.30;51.70
36690;DHT22;22676;51.120;3.702;2023-07-16T09:50:05;25.30;52.40
36690;DHT22;22676;51.120;3.702;2023-07-16T09:52:32;25.30;52.40
36690;DHT22;22676;51.120;3.702;2023-07-16T09:55:02;25.30;51.80
36690;DHT22;22676;51.120;3.702;2023-07-16T09:57:32;25.30;53.40
36690;DHT22;22676;51.120;3.702;2023-07-16T10:00:03;25.30;53.10
36690;DHT22;22676;51.120;3.702;2023-07-16T10:02:33;25.40;52.70
36690;DHT22;22676;51.120;3.702;2023-07-16T10:04:59;25.30;53.00
36690;DHT22;22676;51.120;3.702;2023-07-16T10:07:25;25.30;51.70
36690;DHT22;22676;51.120;3.702;2023-07-16T10:09:56;25.40;51.80
36690;DHT22;22676;51.120;3.702;2023-07-16T10:12:26;25.40;52.30
36690;DHT22;22676;51.120;3.702;2023-07-16T10:14:53;25.40;50.90
36690;DHT22;22676;51.120;3.702;2023-07-16T10:17:20;25.40;50.80
36690;DHT22;22676;51.120;3.702;2023-07-16T10:19:56;25.40;50.80
36690;DHT22;22676;51.120;3.702;2023-07-16T10:22:38;25.40;49.30
36690;DHT22;22676;51.120;3.702;2023-07-16T10:25:09;25.30;50.70
36690;DHT22;22676;51.120;3.702;2023-07-16T10:27:36;25.30;50.60
36690;DHT22;22676;51.120;3.702;2023-07-16T10:30:03;25.20;49.10
36690;DHT22;22676;51.120;3.702;2023-07-16T10:32:31;25.30;50.20
36690;DHT22;22676;51.120;3.702;2023-07-16T10:34:57;25.30;49.40
36690;DHT22;22676;51.120;3.702;2023-07-16T10:37:23;25.30;50.70
36690;DHT22;22676;51.120;3.702;2023-07-16T10:39:51;25.30;49.70
36690;DHT22;22676;51.120;3.702;2023-07-16T10:42:17;25.30;48.20
36690;DHT22;22676;51.120;3.702;2023-07-16T10:44:44;25.30;50.30
36690;DHT22;22676;51.120;3.702;2023-07-16T10:47:29;25.40;49.80
36690;DHT22;22676;51.120;3.702;2023-07-16T10:49:56;25.40;50.10
36690;DHT22;22676;51.120;3.702;2023-07-16T10:52:22;25.40;49.30
36690;DHT22;22676;51.120;3.702;2023-07-16T10:54:49;25.40;48.80
36690;DHT22;22676;51.120;3.702;2023-07-16T10:57:16;25.40;49.20
36690;DHT22;22676;51.120;3.702;2023-07-16T10:59:42;25.40;49.00
36690;DHT22;22676;51.120;3.702;2023-07-16T11:02:12;25.50;47.90
36690;DHT22;22676;51.120;3.702;2023-07-16T11:04:39;25.50;48.50
36690;DHT22;22676;51.120;3.702;2023-07-16T11:07:09;25.60;48.30
36690;DHT22;22676;51.120;3.702;2023-07-16T11:09:43;25.60;48.40
36690;DHT22;22676;51.120;3.702;2023-07-16T11:12:10;25.50;49.60
36690;DHT22;22676;51.120;3.702;2023-07-16T11:14:37;25.50;48.90
36690;DHT22;22676;51.120;3.702;2023-07-16T11:17:09;25.50;49.90
36690;DHT22;22676;51.120;3.702;2023-07-16T11:19:36;25.50;49.70
36690;DHT22;22676;51.120;3.702;2023-07-16T11:22:04;25.50;48.50
36690;DHT22;22676;51.120;3.702;2023-07-16T11:24:43;25.50;49.50
36690;DHT22;22676;51.120;3.702;2023-07-16T11:27:14;25.50;48.90
36690;DHT22;22676;51.120;3.702;2023-07-16T11:29:58;25.50;48.80
36690;DHT22;22676;51.120;3.702;2023-07-16T11:32:35;25.50;48.40
36690;DHT22;22676;51.120;3.702;2023-07-16T11:35:05;25.60;47.90
36690;DHT22;22676;51.120;3.702;2023-07-16T11:37:34;25.60;47.20
36690;DHT22;22676;51.120;3.702;2023-07-16T11:40:05;25.60;46.80
36690;DHT22;22676;51.120;3.702;2023-07-16T11:42:34;25.50;47.30
36690;DHT22;22676;51.120;3.702;2023-07-16T11:45:03;25.50;47.40
36690;DHT22;22676;51.120;3.702;2023-07-16T11:47:29;25.50;48.70
36690;DHT22;22676;51.120;3.702;2023-07-16T11:49:56;25.50;48.40
36690;DHT22;22676;51.120;3.702;2023-07-16T11:52:27;25.60;47.60
36690;DHT22;22676;51.120;3.702;2023-07-16T11:54:54;25.60;47.70
36690;DHT22;22676;51.120;3.702;2023-07-16T11:57:20;25.50;47.60
36690;DHT22;22676;51.120;3.702;2023-07-16T11:59:46;25.60;48.00
36690;DHT22;22676;51.120;3.702;2023-07-16T12:02:12;25.60;47.90
36690;DHT22;22676;51.120;3.702;2023-07-16T12:04:38;25.70;48.10
36690;DHT22;22676;51.120;3.702;2023-07-16T12:07:03;25.70;47.90
36690;DHT22;22676;51.120;3.702;2023-07-16T12:09:29;25.70;47.30
36690;DHT22;22676;51.120;3.702;2023-07-16T12:11:55;25.80;47.20
36690;DHT22;22676;51.120;3.702;2023-07-16T12:14:21;25.80;47.50
36690;DHT22;22676;51.120;3.702;2023-07-16T12:16:47;25.80;47.60
36690;DHT22;22676;51.120;3.702;2023-07-16T12:19:12;25.80;47.10
36690;DHT22;22676;51.120;3.702;2023-07-16T12:21:38;25.90;47.30
36690;DHT22;22676;51.120;3.702;2023-07-16T12:24:04;25.90;46.80
36690;DHT22;22676;51.120;3.702;2023-07-16T12:26:31;25.90;46.00
36690;DHT22;22676;51.120;3.702;2023-07-16T12:28:56;25.90;46.60
36690;DHT22;22676;51.120;3.702;2023-07-16T12:31:22;25.90;45.80
36690;DHT22;22676;51.120;3.702;2023-07-16T12:33:48;26.00;45.00
36690;DHT22;22676;51.120;3.702;2023-07-16T12:36:14;26.00;45.40
36690;DHT22;22676;51.120;3.702;2023-07-16T12:38:41;26.00;44.60
36690;DHT22;22676;51.120;3.702;2023-07-16T12:41:07;26.10;44.60
36690;DHT22;22676;51.120;3.702;2023-07-16T12:43:33;26.00;43.50
36690;DHT22;22676;51.120;3.702;2023-07-16T12:46:03;26.00;43.00
36690;DHT22;22676;51.120;3.702;2023-07-16T12:48:30;25.90;43.00
36690;DHT22;22676;51.120;3.702;2023-07-16T12:50:55;26.00;43.40
36690;DHT22;22676;51.120;3.702;2023-07-16T12:53:22;26.00;43.30
36690;DHT22;22676;51.120;3.702;2023-07-16T12:55:47;26.00;42.90
36690;DHT22;22676;51.120;3.702;2023-07-16T12:58:13;26.00;42.80
36690;DHT22;22676;51.120;3.702;2023-07-16T13:00:38;26.00;42.70
36690;DHT22;22676;51.120;3.702;2023-07-16T13:03:05;26.10;43.10
36690;DHT22;22676;51.120;3.702;2023-07-16T13:05:30;26.20;42.40
36690;DHT22;22676;51.120;3.702;2023-07-16T13:07:56;26.20;42.10
36690;DHT22;22676;51.120;3.702;2023-07-16T13:10:23;26.20;42.10
36690;DHT22;22676;51.120;3.702;2023-07-16T13:12:48;26.20;41.80
36690;DHT22;22676;51.120;3.702;2023-07-16T13:15:14;26.30;41.70
36690;DHT22;22676;51.120;3.702;2023-07-16T13:17:40;26.30;41.80
36690;DHT22;22676;51.120;3.702;2023-07-16T13:20:06;26.40;41.60
36690;DHT22;22676;51.120;3.702;2023-07-16T13:22:32;26.30;41.30
36690;DHT22;22676;51.120;3.702;2023-07-16T13:24:58;26.50;41.90
36690;DHT22;22676;51.120;3.702;2023-07-16T13:27:24;26.60;42.30
36690;DHT22;22676;51.120;3.702;2023-07-16T13:29:49;26.70;41.50
36690;DHT22;22676;51.120;3.702;2023-07-16T13:32:16;26.80;40.70
36690;DHT22;22676;51.120;3.702;2023-07-16T13:34:42;26.80;40.70
36690;DHT22;22676;51.120;3.702;2023-07-16T13:37:08;26.90;40.60
36690;DHT22;22676;51.120;3.702;2023-07-16T13:39:33;26.90;40.20
36690;DHT22;22676;51.120;3.702;2023-07-16T13:41:59;27.00;39.90
36690;DHT22;22676;51.120;3.702;2023-07-16T13:44:24;27.00;40.00
36690;DHT22;22676;51.120;3.702;2023-07-16T13:46:50;27.00;40.10
36690;DHT22;22676;51.120;3.702;2023-07-16T13:49:16;27.10;40.50
36690;DHT22;22676;51.120;3.702;2023-07-16T13:51:41;27.10;40.50
36690;DHT22;22676;51.120;3.702;2023-07-16T13:54:07;27.10;40.70
36690;DHT22;22676;51.120;3.702;2023-07-16T13:56:33;27.20;40.90
36690;DHT22;22676;51.120;3.702;2023-07-16T13:58:58;27.10;40.50
36690;DHT22;22676;51.120;3.702;2023-07-16T14:01:24;27.10;40.60
36690;DHT22;22676;51.120;3.702;2023-07-16T14:03:50;26.80;40.30
36690;DHT22;22676;51.120;3.702;2023-07-16T14:06:16;26.90;40.50
36690;DHT22;22676;51.120;3.702;2023-07-16T14:08:41;26.90;40.70
36690;DHT22;22676;51.120;3.702;2023-07-16T14:11:07;27.10;41.20
36690;DHT22;22676;51.120;3.702;2023-07-16T14:13:33;27.10;40.90
36690;DHT22;22676;51.120;3.702;2023-07-16T14:15:58;27.20;40.80
36690;DHT22;22676;51.120;3.702;2023-07-16T14:18:24;27.30;40.50
36690;DHT22;22676;51.120;3.702;2023-07-16T14:20:50;27.20;40.60
36690;DHT22;22676;51.120;3.702;2023-07-16T14:23:15;27.30;40.40
36690;DHT22;22676;51.120;3.702;2023-07-16T14:25:41;27.40;40.60
36690;DHT22;22676;51.120;3.702;2023-07-16T14:28:07;27.50;40.50
36690;DHT22;22676;51.120;3.702;2023-07-16T14:30:32;27.40;40.60
36690;DHT22;22676;51.120;3.702;2023-07-16T14:32:58;27.50;40.00
36690;DHT22;22676;51.120;3.702;2023-07-16T14:35:25;27.50;40.10
36690;DHT22;22676;51.120;3.702;2023-07-16T14:37:50;27.50;39.90
36690;DHT22;22676;51.120;3.702;2023-07-16T14:40:16;27.60;40.10
36690;DHT22;22676;51.120;3.702;2023-07-16T14:42:43;27.50;40.20
36690;DHT22;22676;51.120;3.702;2023-07-16T14:45:09;27.60;40.10
36690;DHT22;22676;51.120;3.702;2023-07-16T14:47:34;27.70;40.00
36690;DHT22;22676;51.120;3.702;2023-07-16T14:50:00;27.70;40.10
36690;DHT22;22676;51.120;3.702;2023-07-16T14:52:26;27.60;39.80
36690;DHT22;22676;51.120;3.702;2023-07-16T14:54:51;27.60;40.20
36690;DHT22;22676;51.120;3.702;2023-07-16T14:57:17;27.60;40.00
36690;DHT22;22676;51.120;3.702;2023-07-16T14:59:43;27.60;40.30
36690;DHT22;22676;51.120;3.702;2023-07-16T15:02:09;27.70;39.90
36690;DHT22;22676;51.120;3.702;2023-07-16T15:04:35;27.70;40.00
36690;DHT22;22676;51.120;3.702;2023-07-16T15:07:00;27.70;39.80
36690;DHT22;22676;51.120;3.702;2023-07-16T15:09:26;27.70;39.10
36690;DHT22;22676;51.120;3.702;2023-07-16T15:11:52;27.60;38.90
36690;DHT22;22676;51.120;3.702;2023-07-16T15:14:18;27.60;39.30
36690;DHT22;22676;51.120;3.702;2023-07-16T15:16:44;27.40;38.90
36690;DHT22;22676;51.120;3.702;2023-07-16T15:19:09;27.50;39.60
36690;DHT22;22676;51.120;3.702;2023-07-16T15:21:37;27.40;39.80
36690;DHT22;22676;51.120;3.702;2023-07-16T15:24:07;27.40;40.40
36690;DHT22;22676;51.120;3.702;2023-07-16T15:26:32;27.30;40.60
36690;DHT22;22676;51.120;3.702;2023-07-16T15:28:58;27.30;40.90
36690;DHT22;22676;51.120;3.702;2023-07-16T15:31:24;27.20;40.80